createdAt,value
2019-04-04T00:01:00.532Z,9.83
2019-04-04T00:03:48.260Z,10.93
2019-04-04T00:06:16.639Z,9.57
2019-04-04T00:08:45.016Z,14.17
2019-04-04T00:11:13.391Z,11.17
2019-04-04T00:13:42.474Z,39.37
2019-04-04T00:16:11.043Z,27.50
2019-04-04T00:18:39.460Z,17.23
2019-04-04T00:21:07.840Z,25.93
2019-04-04T00:23:37.958Z,17.87
2019-04-04T00:26:06.570Z,13.83
2019-04-04T00:28:34.972Z,11.83
2019-04-04T00:31:03.417Z,11.57
2019-04-04T00:33:31.792Z,12.47
2019-04-04T00:36:00.723Z,11.53
2019-04-04T00:38:30.280Z,12.47
2019-04-04T00:40:58.740Z,13.63
2019-04-04T00:43:27.148Z,12.87
2019-04-04T00:45:55.513Z,12.60
2019-04-04T00:48:23.900Z,12.17
2019-04-04T00:50:52.288Z,12.03
2019-04-04T00:53:20.664Z,12.77
2019-04-04T00:55:49.044Z,11.37
2019-04-04T00:58:18.900Z,11.70
2019-04-04T01:00:47.545Z,10.73
2019-04-04T01:03:15.935Z,10.57
2019-04-04T01:05:44.319Z,10.80
2019-04-04T01:08:12.695Z,10.43
2019-04-04T01:10:41.088Z,10.73
2019-04-04T01:13:09.471Z,7.57
2019-04-04T01:15:37.847Z,7.97
2019-04-04T01:18:06.808Z,10.30
2019-04-04T01:20:35.512Z,8.60
2019-04-04T01:23:03.966Z,10.27
2019-04-04T01:25:32.833Z,9.17
2019-04-04T01:28:01.307Z,9.73
2019-04-04T01:30:29.682Z,9.70
2019-04-04T01:32:58.070Z,10.77
2019-04-04T01:35:26.444Z,10.10
2019-04-04T01:37:57.847Z,11.70
2019-04-04T01:40:24.948Z,10.53
2019-04-04T01:42:53.318Z,9.67
2019-04-04T01:45:21.695Z,10.03
2019-04-04T01:47:50.088Z,10.40
2019-04-04T01:50:18.490Z,12.17
2019-04-04T01:52:46.856Z,12.33
2019-04-04T01:55:15.231Z,13.67
2019-04-04T01:57:43.624Z,13.30
2019-04-04T02:00:15.039Z,12.17
2019-04-04T02:02:43.124Z,11.90
2019-04-04T02:05:11.571Z,12.00
2019-04-04T02:07:39.976Z,10.47
2019-04-04T02:10:08.856Z,11.60
2019-04-04T02:12:39.190Z,13.03
2019-04-04T02:15:08.883Z,12.40
2019-04-04T02:17:37.346Z,11.87
2019-04-04T02:20:07.072Z,11.50
2019-04-04T02:22:35.448Z,10.73
2019-04-04T02:25:05.213Z,12.27
2019-04-04T02:27:33.592Z,11.40
2019-04-04T02:30:01.989Z,10.47
2019-04-04T02:32:30.435Z,10.90
2019-04-04T02:34:58.828Z,10.53
2019-04-04T02:37:27.204Z,10.67
2019-04-04T02:39:55.580Z,9.50
2019-04-04T02:42:23.994Z,10.00
2019-04-04T02:44:52.353Z,9.27
2019-04-04T02:47:20.744Z,10.17
2019-04-04T02:49:49.126Z,9.03
2019-04-04T02:52:17.491Z,9.43
2019-04-04T02:54:45.876Z,9.63
2019-04-04T02:57:14.254Z,10.27
2019-04-04T02:59:42.657Z,9.73
2019-04-04T03:02:11.039Z,10.40
2019-04-04T03:04:58.775Z,10.13
2019-04-04T03:07:29.796Z,10.13
2019-04-04T03:09:57.317Z,10.50
2019-04-04T03:12:26.855Z,10.73
2019-04-04T03:14:55.495Z,10.33
2019-04-04T03:17:23.875Z,12.00
2019-04-04T03:19:52.289Z,12.33
2019-04-04T03:22:20.710Z,12.27
2019-04-04T03:24:49.089Z,12.30
2019-04-04T03:27:17.465Z,11.93
2019-04-04T03:29:45.853Z,13.17
2019-04-04T03:32:16.298Z,13.37
2019-04-04T03:34:50.199Z,13.60
2019-04-04T03:37:14.444Z,14.10
2019-04-04T03:39:42.825Z,15.27
2019-04-04T03:42:11.226Z,15.00
2019-04-04T03:44:39.609Z,15.03
2019-04-04T03:47:10.456Z,15.57
2019-04-04T03:49:38.082Z,14.23
2019-04-04T03:52:10.008Z,12.97
2019-04-04T03:54:36.573Z,11.93
2019-04-04T03:57:04.970Z,12.30
2019-04-04T03:59:33.347Z,12.30
2019-04-04T04:02:01.727Z,11.63
2019-04-04T04:04:30.106Z,12.73
2019-04-04T04:06:59.344Z,11.53
2019-04-04T04:09:27.723Z,11.47
2019-04-04T04:11:56.110Z,11.30
2019-04-04T04:14:24.496Z,12.07
2019-04-04T04:16:52.885Z,10.00
2019-04-04T04:19:24.238Z,12.67
2019-04-04T04:21:51.383Z,11.70
2019-04-04T04:24:19.765Z,17.23
2019-04-04T04:26:48.143Z,16.10
2019-04-04T04:29:16.636Z,14.30
2019-04-04T04:31:48.338Z,14.87
2019-04-04T04:34:15.097Z,20.90
2019-04-04T04:36:47.735Z,23.20
2019-04-04T04:39:13.581Z,21.53
2019-04-04T04:41:41.978Z,12.73
2019-04-04T04:44:10.366Z,14.37
2019-04-04T04:46:38.768Z,13.43
2019-04-04T04:49:07.234Z,13.73
2019-04-04T04:51:35.680Z,15.67
2019-04-04T04:54:04.056Z,15.20
2019-04-04T04:56:32.439Z,13.33
2019-04-04T04:59:00.824Z,17.50
2019-04-04T05:01:29.209Z,15.77
2019-04-04T05:03:57.580Z,15.53
2019-04-04T05:06:25.967Z,14.23
2019-04-04T05:08:54.347Z,12.80
2019-04-04T05:11:22.724Z,14.37
2019-04-04T05:13:51.115Z,14.37
2019-04-04T05:16:19.491Z,14.40
2019-04-04T05:18:48.288Z,13.80
2019-04-04T05:21:24.951Z,15.13
2019-04-04T05:23:47.633Z,15.10
2019-04-04T05:26:16.107Z,15.00
2019-04-04T05:28:44.487Z,15.30
2019-04-04T05:31:12.889Z,14.17
2019-04-04T05:33:41.256Z,15.93
2019-04-04T05:36:09.643Z,14.43
2019-04-04T05:38:38.048Z,16.10
2019-04-04T05:41:06.411Z,16.17
2019-04-04T05:43:35.284Z,16.50
2019-04-04T05:46:05.296Z,16.23
2019-04-04T05:48:33.919Z,13.77
2019-04-04T05:51:02.308Z,14.30
2019-04-04T05:53:30.691Z,15.13
2019-04-04T05:55:59.063Z,17.20
2019-04-04T05:58:27.467Z,16.53
2019-04-04T06:00:57.702Z,16.10
2019-04-04T06:03:25.974Z,16.17
2019-04-04T06:05:54.359Z,16.03
2019-04-04T06:08:22.888Z,15.87
2019-04-04T06:10:51.260Z,14.53
2019-04-04T06:13:22.157Z,14.47
2019-04-04T06:15:49.744Z,14.63
2019-04-04T06:18:18.116Z,14.50
2019-04-04T06:20:48.378Z,13.47
2019-04-04T06:23:16.597Z,13.40
2019-04-04T06:25:44.976Z,12.50
2019-04-04T06:28:13.382Z,13.93
2019-04-04T06:30:43.575Z,12.87
2019-04-04T06:33:11.900Z,12.20
2019-04-04T06:35:40.303Z,13.60
2019-04-04T06:38:08.720Z,11.93
2019-04-04T06:40:37.076Z,11.70
2019-04-04T06:43:10.654Z,11.97
2019-04-04T06:45:35.576Z,11.37
2019-04-04T06:48:04.020Z,10.83
2019-04-04T06:50:32.403Z,11.67
2019-04-04T06:53:00.780Z,10.27
2019-04-04T06:55:29.518Z,11.13
2019-04-04T06:57:58.025Z,12.00
2019-04-04T07:00:26.396Z,11.63
2019-04-04T07:02:56.104Z,11.40
2019-04-04T07:05:24.651Z,11.03
2019-04-04T07:07:53.027Z,10.90
2019-04-04T07:10:22.114Z,11.30
2019-04-04T07:12:50.672Z,10.60
2019-04-04T07:15:19.069Z,10.67
2019-04-04T07:17:47.441Z,11.03
2019-04-04T07:20:17.100Z,11.23
2019-04-04T07:22:45.962Z,10.67
2019-04-04T07:25:14.332Z,11.03
2019-04-04T07:27:42.727Z,10.53
2019-04-04T07:30:11.441Z,10.13
2019-04-04T07:32:41.660Z,11.10
2019-04-04T07:35:09.931Z,11.40
2019-04-04T07:37:38.303Z,11.10
2019-04-04T07:40:07.219Z,11.23
2019-04-04T07:42:35.611Z,11.30
2019-04-04T07:45:06.096Z,12.17
2019-04-04T07:47:34.472Z,10.60
2019-04-04T07:50:02.859Z,11.40
2019-04-04T07:52:33.168Z,12.03
2019-04-04T07:55:01.335Z,11.17
2019-04-04T07:57:30.198Z,11.17
2019-04-04T07:59:58.875Z,10.87
2019-04-04T08:02:27.268Z,10.57
2019-04-04T08:04:55.660Z,11.23
2019-04-04T08:07:24.043Z,10.50
2019-04-04T08:09:52.490Z,10.60
2019-04-04T08:12:20.875Z,12.07
2019-04-04T08:14:49.252Z,16.63
2019-04-04T08:17:19.034Z,17.70
2019-04-04T08:19:59.111Z,11.90
2019-04-04T08:22:17.896Z,16.40
2019-04-04T08:24:46.356Z,13.23
2019-04-04T08:27:14.812Z,10.33
2019-04-04T08:29:43.203Z,9.03
2019-04-04T08:32:11.572Z,11.50
2019-04-04T08:34:39.960Z,10.10
2019-04-04T08:37:08.336Z,10.10
2019-04-04T08:39:36.724Z,10.10
2019-04-04T08:42:05.103Z,9.30
2019-04-04T08:44:33.483Z,10.50
2019-04-04T08:47:01.888Z,9.37
2019-04-04T08:49:30.268Z,10.37
2019-04-04T08:51:58.649Z,9.90
2019-04-04T08:54:27.045Z,9.70
2019-04-04T08:56:55.423Z,8.60
2019-04-04T08:59:23.801Z,9.03
2019-04-04T09:01:52.187Z,9.47
2019-04-04T09:04:20.578Z,9.37
2019-04-04T09:06:48.956Z,9.00
2019-04-04T09:09:17.340Z,9.80
2019-04-04T09:11:45.728Z,8.90
2019-04-04T09:14:14.119Z,9.60
2019-04-04T09:16:42.573Z,8.83
2019-04-04T09:19:10.959Z,8.30
2019-04-04T09:21:39.336Z,8.80
2019-04-04T09:24:07.728Z,9.23
2019-04-04T09:26:36.124Z,8.20
2019-04-04T09:29:04.508Z,9.80
2019-04-04T09:31:32.884Z,11.20
2019-04-04T09:34:01.285Z,9.90
2019-04-04T09:36:29.661Z,9.43
2019-04-04T09:38:58.054Z,8.97
2019-04-04T09:41:26.432Z,8.60
2019-04-04T09:43:54.824Z,7.30
2019-04-04T09:46:23.199Z,8.00
2019-04-04T09:48:51.581Z,9.17
2019-04-04T09:51:19.967Z,8.00
2019-04-04T09:53:53.389Z,8.23
2019-04-04T09:56:18.475Z,6.50
2019-04-04T09:58:46.857Z,7.00
2019-04-04T10:01:15.243Z,6.83
2019-04-04T10:03:43.615Z,6.13
2019-04-04T10:06:12.002Z,8.00
2019-04-04T10:08:40.390Z,8.33
2019-04-04T10:11:08.772Z,8.40
2019-04-04T10:13:37.160Z,7.07
2019-04-04T10:16:05.608Z,7.53
2019-04-04T10:18:33.991Z,7.93
2019-04-04T10:21:11.691Z,7.17
2019-04-04T10:23:32.480Z,7.83
2019-04-04T10:26:00.852Z,8.17
2019-04-04T10:28:29.242Z,8.07
2019-04-04T10:30:57.627Z,7.93
2019-04-04T10:33:26.007Z,7.20
2019-04-04T10:35:54.392Z,8.07
2019-04-04T10:38:22.765Z,7.73
2019-04-04T10:40:51.159Z,7.47
2019-04-04T10:43:19.542Z,8.20
2019-04-04T10:45:48.011Z,7.10
2019-04-04T10:48:16.392Z,7.40
2019-04-04T10:50:44.771Z,7.10
2019-04-04T10:53:13.159Z,6.93
2019-04-04T10:55:41.603Z,6.87
2019-04-04T10:58:09.979Z,7.47
2019-04-04T11:00:38.376Z,8.87
2019-04-04T11:03:06.775Z,8.17
2019-04-04T11:05:35.529Z,6.80
2019-04-04T11:08:04.007Z,6.73
2019-04-04T11:10:32.396Z,7.07
2019-04-04T11:13:02.891Z,6.17
2019-04-04T11:15:30.875Z,6.67
2019-04-04T11:17:59.264Z,6.07
2019-04-04T11:20:27.636Z,5.97
2019-04-04T11:22:56.024Z,6.80
2019-04-04T11:25:24.406Z,6.27
2019-04-04T11:27:52.807Z,7.70
2019-04-04T11:30:21.426Z,8.43
2019-04-04T11:32:49.816Z,6.60
2019-04-04T11:35:18.192Z,6.37
2019-04-04T11:37:46.567Z,6.87
2019-04-04T11:40:14.962Z,6.13
2019-04-04T11:42:43.335Z,6.30
2019-04-04T11:45:12.059Z,6.23
2019-04-04T11:47:40.435Z,6.00
2019-04-04T11:50:09.255Z,6.43
2019-04-04T11:52:37.645Z,8.20
2019-04-04T11:55:07.169Z,7.10
2019-04-04T11:57:35.555Z,6.80
2019-04-04T12:00:06.813Z,6.13
2019-04-04T12:02:35.193Z,6.53
2019-04-04T12:05:04.425Z,6.80
2019-04-04T12:07:32.807Z,6.57
2019-04-04T12:10:07.353Z,7.30
2019-04-04T12:12:31.303Z,6.00
2019-04-04T12:14:59.675Z,6.47
2019-04-04T12:17:28.070Z,6.23
2019-04-04T12:19:56.462Z,6.23
2019-04-04T12:22:24.845Z,6.40
2019-04-04T12:24:53.229Z,7.80
2019-04-04T12:27:21.612Z,8.13
2019-04-04T12:29:49.993Z,7.93
2019-04-04T12:32:18.384Z,9.23
2019-04-04T12:34:47.003Z,7.77
2019-04-04T12:37:15.384Z,8.73
2019-04-04T12:39:44.510Z,7.30
2019-04-04T12:42:13.172Z,6.87
2019-04-04T12:44:41.564Z,7.80
2019-04-04T12:47:09.944Z,7.97
2019-04-04T12:49:38.325Z,8.33
2019-04-04T12:52:06.722Z,8.70
2019-04-04T12:54:35.113Z,9.80
2019-04-04T12:57:03.497Z,10.00
2019-04-04T12:59:31.887Z,10.77
2019-04-04T13:02:00.275Z,11.73
2019-04-04T13:04:32.007Z,11.53
2019-04-04T13:07:18.360Z,11.43
2019-04-04T13:09:46.760Z,13.10
2019-04-04T13:12:15.144Z,12.97
2019-04-04T13:14:43.528Z,14.37
2019-04-04T13:17:11.924Z,14.13
2019-04-04T13:19:40.312Z,15.43
2019-04-04T13:22:08.707Z,16.80
2019-04-04T13:24:37.100Z,16.47
2019-04-04T13:27:05.489Z,14.67
2019-04-04T13:29:33.882Z,14.80
2019-04-04T13:32:02.276Z,14.40
2019-04-04T13:34:30.663Z,14.73
2019-04-04T13:36:59.047Z,15.07
2019-04-04T13:39:27.436Z,15.60
2019-04-04T13:41:55.893Z,16.80
2019-04-04T13:44:24.298Z,16.63
2019-04-04T13:47:12.028Z,17.30
2019-04-04T13:49:42.214Z,19.37
2019-04-04T13:52:11.719Z,19.87
2019-04-04T13:54:40.209Z,19.07
2019-04-04T13:57:08.603Z,20.37
2019-04-04T13:59:37.011Z,18.73
2019-04-04T14:02:05.472Z,20.73
2019-04-04T14:04:33.853Z,19.43
2019-04-04T14:07:02.670Z,20.40
2019-04-04T14:09:31.513Z,20.47
2019-04-04T14:11:59.911Z,19.63
2019-04-04T14:14:28.291Z,20.47
2019-04-04T14:16:56.686Z,18.67
2019-04-04T14:19:25.075Z,19.07
2019-04-04T14:21:53.460Z,21.67
2019-04-04T14:24:21.852Z,19.80
2019-04-04T14:26:50.233Z,19.90
2019-04-04T14:29:27.339Z,20.67
2019-04-04T14:31:48.754Z,19.60
2019-04-04T14:34:17.138Z,21.07
2019-04-04T14:36:45.536Z,18.03
2019-04-04T14:39:13.935Z,18.37
2019-04-04T14:41:42.328Z,19.57
2019-04-04T14:44:10.708Z,17.73
2019-04-04T14:46:39.862Z,18.50
2019-04-04T14:49:08.379Z,17.23
2019-04-04T14:51:36.768Z,17.87
2019-04-04T14:54:05.236Z,16.13
2019-04-04T14:56:33.612Z,15.43
2019-04-04T14:59:02.010Z,16.50
2019-04-04T15:01:30.405Z,16.37
2019-04-04T15:03:58.799Z,15.97
2019-04-04T15:06:27.186Z,14.80
2019-04-04T15:08:55.583Z,14.73
2019-04-04T15:11:24.743Z,13.90
2019-04-04T15:13:53.228Z,12.67
2019-04-04T15:16:21.628Z,13.30
2019-04-04T15:18:50.013Z,11.50
2019-04-04T15:21:18.395Z,12.20
2019-04-04T15:23:46.787Z,10.20
2019-04-04T15:26:15.175Z,12.23
2019-04-04T15:28:43.809Z,12.70
2019-04-04T15:31:12.180Z,12.07
2019-04-04T15:33:40.580Z,12.17
2019-04-04T15:36:08.972Z,12.60
2019-04-04T15:38:37.415Z,11.70
2019-04-04T15:41:05.804Z,11.37
2019-04-04T15:43:34.206Z,12.50
2019-04-04T15:46:02.586Z,11.77
2019-04-04T15:48:30.972Z,11.47
2019-04-04T15:50:59.368Z,11.90
2019-04-04T15:53:27.769Z,12.53
2019-04-04T15:55:56.161Z,12.50
2019-04-04T15:58:24.539Z,10.90
2019-04-04T16:00:52.931Z,11.23
2019-04-04T16:03:21.317Z,10.70
2019-04-04T16:05:49.791Z,10.37
2019-04-04T16:08:18.174Z,10.87
2019-04-04T16:10:46.561Z,10.67
2019-04-04T16:13:14.955Z,10.87
2019-04-04T16:15:43.355Z,11.50
2019-04-04T16:18:11.751Z,11.47
2019-04-04T16:20:40.137Z,11.10
2019-04-04T16:23:08.535Z,10.60
2019-04-04T16:25:36.915Z,11.17
2019-04-04T16:28:05.323Z,10.53
2019-04-04T16:30:33.711Z,10.07
2019-04-04T16:33:02.095Z,8.93
2019-04-04T16:35:30.496Z,10.23
2019-04-04T16:37:58.874Z,9.30
2019-04-04T16:40:27.263Z,9.43
2019-04-04T16:43:14.989Z,9.40
2019-04-04T16:45:43.385Z,9.33
2019-04-04T16:48:13.871Z,8.83
2019-04-04T16:50:41.880Z,9.53
2019-04-04T16:53:10.257Z,9.33
2019-04-04T16:55:38.640Z,9.83
2019-04-04T16:58:07.029Z,9.93
2019-04-04T17:00:35.424Z,9.80
2019-04-04T17:03:03.986Z,10.37
2019-04-04T17:05:32.368Z,10.33
2019-04-04T17:08:00.764Z,9.33
2019-04-04T17:10:29.145Z,7.97
2019-04-04T17:12:57.531Z,8.87
2019-04-04T17:15:25.923Z,8.27
2019-04-04T17:17:54.307Z,9.30
2019-04-04T17:20:22.716Z,8.47
2019-04-04T17:22:51.112Z,8.00
2019-04-04T17:25:19.520Z,7.90
2019-04-04T17:27:47.903Z,7.83
2019-04-04T17:30:16.735Z,8.33
2019-04-04T17:32:47.957Z,7.70
2019-04-04T17:35:15.490Z,8.07
2019-04-04T17:37:43.843Z,7.77
2019-04-04T17:40:13.860Z,8.07
2019-04-04T17:42:42.242Z,7.53
2019-04-04T17:45:11.639Z,8.33
2019-04-04T17:47:40.024Z,8.80
2019-04-04T17:50:13.276Z,8.97
2019-04-04T17:52:42.346Z,9.13
2019-04-04T17:55:11.323Z,8.67
2019-04-04T17:57:39.839Z,9.47
2019-04-04T18:00:09.892Z,9.70
2019-04-04T18:02:38.340Z,10.43
2019-04-04T18:05:10.797Z,10.37
2019-04-04T18:07:39.187Z,11.37
2019-04-04T18:10:08.511Z,11.80
2019-04-04T18:12:56.245Z,14.00
2019-04-04T18:15:43.956Z,18.63
2019-04-04T18:18:12.347Z,16.97
2019-04-04T18:20:40.732Z,15.63
2019-04-04T18:23:28.460Z,15.80
2019-04-04T18:25:56.844Z,16.10
2019-04-04T18:28:25.224Z,15.60
2019-04-04T18:30:53.983Z,16.13
2019-04-04T18:33:22.371Z,17.33
2019-04-04T18:35:50.828Z,16.57
2019-04-04T18:38:19.445Z,17.87
2019-04-04T18:40:47.968Z,18.53
2019-04-04T18:43:16.367Z,18.67
2019-04-04T18:45:44.756Z,18.90
2019-04-04T18:48:13.139Z,18.63
2019-04-04T18:50:41.532Z,19.83
2019-04-04T18:53:09.916Z,20.53
2019-04-04T18:55:38.880Z,19.63
2019-04-04T18:58:07.276Z,20.27
2019-04-04T19:00:35.655Z,21.67
2019-04-04T19:03:04.189Z,22.03
2019-04-04T19:05:32.564Z,22.57
2019-04-04T19:08:00.971Z,22.20
2019-04-04T19:10:29.348Z,25.33
2019-04-04T19:13:05.278Z,25.17
2019-04-04T19:15:27.844Z,24.13
2019-04-04T19:17:56.228Z,25.00
2019-04-04T19:20:24.624Z,26.03
2019-04-04T19:22:53.005Z,25.70
2019-04-04T19:25:21.409Z,24.53
2019-04-04T19:27:49.780Z,25.37
2019-04-04T19:30:18.603Z,26.07
2019-04-04T19:32:46.977Z,24.50
2019-04-04T19:35:16.256Z,26.47
2019-04-04T19:37:44.653Z,25.67
2019-04-04T19:40:14.473Z,26.73
2019-04-04T19:42:42.933Z,25.73
2019-04-04T19:45:12.168Z,25.87
2019-04-04T19:47:40.549Z,25.57
2019-04-04T19:50:11.032Z,26.30
2019-04-04T19:52:39.429Z,24.30
2019-04-04T19:55:08.040Z,25.73
2019-04-04T19:57:36.421Z,25.40
2019-04-04T20:00:07.668Z,24.23
2019-04-04T20:02:36.045Z,26.23
2019-04-04T20:05:05.759Z,26.27
2019-04-04T20:07:34.152Z,25.93
2019-04-04T20:10:02.531Z,24.70
2019-04-04T20:12:30.912Z,24.20
2019-04-04T20:14:59.308Z,25.83
2019-04-04T20:17:27.681Z,26.73
2019-04-04T20:19:56.067Z,25.67
2019-04-04T20:22:24.464Z,26.40
2019-04-04T20:24:52.839Z,26.33
2019-04-04T20:27:21.236Z,27.47
2019-04-04T20:29:49.608Z,25.97
2019-04-04T20:32:17.989Z,26.67
2019-04-04T20:34:46.372Z,26.33
2019-04-04T20:37:14.745Z,27.77
2019-04-04T20:39:43.135Z,27.73
2019-04-04T20:42:11.508Z,27.93
2019-04-04T20:44:39.905Z,28.57
2019-04-04T20:47:08.276Z,27.90
2019-04-04T20:49:36.647Z,28.00
2019-04-04T20:52:05.035Z,27.27
2019-04-04T20:54:33.433Z,26.00
2019-04-04T20:57:01.803Z,27.13
2019-04-04T20:59:30.760Z,28.07
2019-04-04T21:01:59.149Z,29.47
2019-04-04T21:04:27.525Z,28.67
2019-04-04T21:06:56.155Z,29.70
2019-04-04T21:09:24.531Z,29.90
2019-04-04T21:11:52.916Z,29.43
2019-04-04T21:14:21.309Z,29.57
2019-04-04T21:16:49.688Z,30.10
2019-04-04T21:19:18.085Z,29.43
2019-04-04T21:21:46.471Z,29.77
2019-04-04T21:24:14.860Z,29.90
2019-04-04T21:26:43.235Z,31.10
2019-04-04T21:29:11.627Z,33.00
2019-04-04T21:31:40.013Z,34.73
2019-04-04T21:34:08.400Z,32.30
2019-04-04T21:36:36.779Z,34.47
2019-04-04T21:39:07.407Z,32.93
2019-04-04T21:41:35.792Z,33.60
2019-04-04T21:44:09.108Z,32.70
2019-04-04T21:46:34.344Z,34.50
2019-04-04T21:49:02.755Z,33.73
2019-04-04T21:51:31.144Z,32.53
2019-04-04T21:53:59.519Z,35.07
2019-04-04T21:56:27.899Z,35.73
2019-04-04T21:58:56.288Z,36.47
2019-04-04T22:01:24.832Z,36.60
2019-04-04T22:03:53.220Z,38.63
2019-04-04T22:06:21.619Z,37.37
2019-04-04T22:08:50.013Z,37.80
2019-04-04T22:11:18.397Z,36.33
2019-04-04T22:13:46.796Z,38.17
2019-04-04T22:16:15.171Z,37.67
2019-04-04T22:18:43.559Z,37.47
2019-04-04T22:21:11.947Z,37.00
2019-04-04T22:23:40.328Z,38.07
2019-04-04T22:26:08.721Z,39.83
2019-04-04T22:28:37.099Z,39.73
2019-04-04T22:31:05.496Z,39.20
2019-04-04T22:33:33.887Z,37.27
2019-04-04T22:36:02.269Z,34.43
2019-04-04T22:38:30.653Z,37.70
2019-04-04T22:40:59.045Z,39.00
2019-04-04T22:43:27.428Z,37.20
2019-04-04T22:45:55.826Z,36.10
2019-04-04T22:48:24.202Z,37.10
2019-04-04T22:50:52.577Z,34.53
2019-04-04T22:53:20.971Z,34.00
2019-04-04T22:55:49.352Z,36.43
2019-04-04T22:58:27.714Z,34.57
2019-04-04T23:00:47.849Z,34.93
2019-04-04T23:03:16.699Z,36.67
2019-04-04T23:05:45.076Z,36.07
2019-04-04T23:08:13.463Z,37.80
2019-04-04T23:10:41.847Z,36.93
2019-04-04T23:13:10.253Z,36.73
2019-04-04T23:15:38.632Z,37.83
2019-04-04T23:18:07.025Z,39.63
2019-04-04T23:20:35.408Z,40.40
2019-04-04T23:23:03.784Z,41.13
2019-04-04T23:25:32.248Z,39.33
2019-04-04T23:28:00.623Z,43.43
2019-04-04T23:30:29.007Z,42.67
2019-04-04T23:32:57.395Z,42.17
2019-04-04T23:35:25.771Z,42.50
2019-04-04T23:37:54.154Z,42.87
2019-04-04T23:40:22.552Z,41.07
2019-04-04T23:42:50.931Z,40.10
2019-04-04T23:45:19.324Z,37.27
2019-04-04T23:47:47.712Z,40.50
2019-04-04T23:50:16.167Z,39.67
2019-04-04T23:52:44.551Z,39.30
2019-04-04T23:55:12.931Z,37.73
2019-04-04T23:57:41.309Z,37.63
